Julian Carroll Airport
KJKL : now visible

Airfield :











YOU CAN JOIN US ON...

 
LOGIN :

Register | Disclaimer

   EN    FR    IT 

 









Legend :    VFR   Marginal VFR   IFR   Intensive IFR   Very Intensive IFR
Visi :
Ceiling :
>= 8 km
>= 3000ft
5 to 8 km
1000 to 3000 ft
1500m to 5 km
500 to 1000 ft
800 to 1500m
200 to 500 ft
< 800m
< 200 ft
Symbols :   Thunderstorms  Fog  Heavy snow  Heavy precipitations  Wind > 20 kt






- Airport Elevation : 1381 ft


KJKL - Julian Carroll

CURRENT METAR :
  • 251853Z AUTO 00000KT 10SM OVC005 13/11 A3000 RMK AO2 SLP158 T01330106

EXPIRED METARs :
  • 251809Z AUTO 00000KT 10SM OVC005 13/10 A3002 RMK AO2 T01280100
  • 251753Z AUTO 00000KT 9SM OVC004 12/10 A3003 RMK AO2 SLP167 T01220100 10122 20089 58008
  • 251653Z AUTO 00000KT 10SM OVC004 11/09 A3005 RMK AO2 SLP174 T01110094

TAF KJKL
Valid from the 25 at 18:00 until the 26 at 18:00 UTC


251823Z 2518/2618 VRB03KT P6SM OVC005
FM252000 00000KT P6SM SCT010
FM260900 00000KT P6SM OVC008
KZID FIR / North America



MET'MAP, your aeronautical weather chart ! - Copyright ORBIFLY December 2007 - Disclaimer

ORBIFLY MET'MAP TEAM :

Programming & Development : Alexandra Zaïnal
Concept & original design : Baudouin d'Aumeries
Assistance for programming : Marc-Olivier Méhu
Technical & hardware support : Manuel Goepfert

Contact : metmap@orbifly.com




SOURCES & CREDITS :

   NOAA       Earth
Advisory